Culpeper, Arkansas
Current Conditions -  °F | °C
As of 4:10 AM on Tuesday 21 Oct 2014 (Local Time) from KRUE Reporting Station
Haze Haze  
Wind Chill: 52°   Ceiling: Unl
Heat Index: 52°   Visibility: 2.5mi
Dew Point: 51°   Wind: 0mph
Humidity: 97%   Direction: NA
Pressure: 30.05"   Gusts: NA
Location:  35.6269°N, 92.5508°W
Report Text: KRUE 210910Z AUTO 00000KT 2 1/2SM BR CLR 11/11 A3005 RMK AO2 T01110106
Loading
Personal Weather Stations






























Interactive Weather Map
Tropical Storm Tracking
New forecast layout! Learn more

10-Day Weather Forecast

Advertisements
Track Severe Weather on mobile